Time;durP1;ratioP1;P1;durP2;ratioP2;P2;SDS_P1;SDS_P2;PMS_P1;PMS_P2;Temp;Humidity;BMP_temperature;BMP_pressure;BME280_temperature;BME280_humidity;BME280_pressure;Samples;Min_cycle;Max_cycle;Signal;HPM_P1;HPM_P2
2022/09/21 00:01:18;;;;;;;1.93;1.70;;;;;;;10.55;85.66;94564.75;5050678;28;20213;-62
2022/09/21 00:03:44;;;;;;;1.80;1.70;;;;;;;10.55;86.20;94564.75;5050309;28;20205;-60
2022/09/21 00:06:15;;;;;;;1.70;1.60;;;;;;;10.70;83.81;94609.22;5050194;28;20585;-60
2022/09/21 00:08:41;;;;;;;2.90;1.73;;;;;;;10.80;82.42;94635.47;5050334;28;20221;-60
2022/09/21 00:11:10;;;;;;;2.47;1.67;;;;;;;10.77;82.17;94633.16;5049970;28;20802;-61
2022/09/21 00:13:36;;;;;;;2.73;1.40;;;;;;;10.38;83.40;94606.06;5049913;28;20647;-60
2022/09/21 00:16:05;;;;;;;2.40;1.87;;;;;;;10.44;84.46;94592.84;5052940;28;20209;-61
2022/09/21 00:18:31;;;;;;;2.93;2.00;;;;;;;10.41;83.59;94600.72;5035852;28;20204;-60
2022/09/21 00:20:57;;;;;;;2.20;2.03;;;;;;;10.31;84.68;94580.38;5053626;28;20185;-62
2022/09/21 00:23:22;;;;;;;2.50;2.30;;;;;;;10.21;85.48;94576.19;5053345;28;20575;-61
2022/09/21 00:25:48;;;;;;;4.47;2.40;;;;;;;10.04;86.80;94560.59;5053670;28;20617;-60
2022/09/21 00:28:13;;;;;;;2.30;2.00;;;;;;;10.12;86.84;94559.97;5053755;28;20781;-62
2022/09/21 00:30:39;;;;;;;6.20;2.83;;;;;;;10.02;87.59;94557.38;5053347;28;20216;-60
2022/09/21 00:33:04;;;;;;;4.43;2.63;;;;;;;9.86;89.46;94521.53;5053032;28;20301;-62
2022/09/21 00:35:30;;;;;;;2.77;2.50;;;;;;;9.79;90.86;94507.75;5053274;28;20212;-60
2022/09/21 00:38:00;;;;;;;4.27;3.17;;;;;;;9.72;92.26;94509.19;5035406;28;20185;-59
2022/09/21 00:40:25;;;;;;;4.90;2.87;;;;;;;9.61;93.99;94506.75;5053414;28;20294;-60
2022/09/21 00:43:13;;;;;;;3.77;2.80;;;;;;;9.58;95.30;94518.88;5053312;28;20623;-60
2022/09/21 00:45:38;;;;;;;6.63;3.00;;;;;;;9.65;94.69;94537.75;5053022;28;20217;-61
2022/09/21 00:48:04;;;;;;;4.50;2.60;;;;;;;9.71;94.13;94539.78;5053081;28;20180;-60
2022/09/21 00:50:30;;;;;;;3.03;2.50;;;;;;;9.74;94.09;94550.47;5052862;28;20221;-62
2022/09/21 00:52:57;;;;;;;3.50;2.10;;;;;;;9.90;92.62;94568.56;5052867;28;20186;-60
2022/09/21 00:55:36;;;;;;;7.17;2.60;;;;;;;9.98;92.00;94573.81;5052835;28;20625;-60
2022/09/21 00:58:12;;;;;;;8.00;2.50;;;;;;;10.19;90.64;94588.22;5052886;28;20681;-62
2022/09/21 01:00:39;;;;;;;3.30;2.03;;;;;;;9.99;92.22;94564.47;5060513;22;20342;-60
2022/09/21 01:03:05;;;;;;;2.40;2.20;;;;;;;10.13;90.40;94592.09;5052700;28;20192;-62
2022/09/21 01:05:31;;;;;;;5.00;2.20;;;;;;;10.01;90.82;94582.91;5053113;28;20262;-60
2022/09/21 01:08:00;;;;;;;2.37;2.17;;;;;;;9.80;91.54;94574.53;5052792;28;20181;-62
2022/09/21 01:10:28;;;;;;;2.73;2.00;;;;;;;9.76;92.60;94565.56;5052903;28;20275;-60
2022/09/21 01:13:06;;;;;;;4.70;2.47;;;;;;;9.85;92.94;94557.19;5052645;28;20255;-60
2022/09/21 01:16:08;;;;;;;7.30;2.70;;;;;;;9.90;91.55;94573.66;5052938;28;20209;-61
2022/09/21 01:18:41;;;;;;;3.27;2.57;;;;;;;10.01;91.12;94575.31;4985019;28;20295;-63
2022/09/21 01:21:13;;;;;;;3.80;3.13;;;;;;;9.91;92.49;94565.13;5052596;28;20208;-60
2022/09/21 01:23:38;;;;;;;6.40;3.10;;;;;;;9.63;96.64;94529.47;5052626;28;20213;-61
2022/09/21 01:26:40;;;;;;;4.60;3.50;;;;;;;9.82;95.44;94548.09;5051840;28;20573;-61
2022/09/21 01:29:12;;;;;;;5.63;3.67;;;;;;;9.56;97.23;94524.06;5052908;28;20217;-62
2022/09/21 01:31:45;;;;;;;4.20;3.33;;;;;;;9.52;96.89;94548.09;5052370;28;20266;-61
2022/09/21 01:34:23;;;;;;;4.63;3.43;;;;;;;9.38;97.89;94535.75;5052585;28;20271;-60
2022/09/21 01:36:52;;;;;;;5.03;3.60;;;;;;;9.39;98.31;94534.84;5034437;28;20192;-60
2022/09/21 01:39:19;;;;;;;5.63;3.93;;;;;;;9.19;99.53;94536.44;5052568;28;20209;-62
2022/09/21 01:41:47;;;;;;;4.90;3.20;;;;;;;9.34;100.00;94539.47;5034338;28;20181;-61
2022/09/21 01:44:19;;;;;;;6.57;3.67;;;;;;;9.10;100.00;94546.53;5034241;28;20255;-62
2022/09/21 01:46:46;;;;;;;4.37;3.40;;;;;;;9.28;100.00;94550.91;5052042;28;20208;-60
2022/09/21 01:49:15;;;;;;;4.10;3.10;;;;;;;9.22;100.00;94540.47;5052159;28;20240;-61
2022/09/21 01:51:47;;;;;;;5.77;3.50;;;;;;;9.41;100.00;94562.59;5051935;28;20210;-60
2022/09/21 01:54:27;;;;;;;3.93;3.20;;;;;;;9.55;97.41;94577.50;5052218;28;20237;-60
2022/09/21 01:57:04;;;;;;;5.23;3.70;;;;;;;9.37;100.00;94558.72;5052164;28;20185;-61
2022/09/21 01:59:44;;;;;;;3.80;3.27;;;;;;;9.40;100.00;94553.38;5052334;28;20678;-61
2022/09/21 02:02:18;;;;;;;5.13;2.80;;;;;;;9.41;100.00;94560.88;5017500;28;20193;-61
2022/09/21 02:04:43;;;;;;;4.80;3.43;;;;;;;9.50;99.32;94562.66;5051885;28;20259;-60
2022/09/21 02:07:09;;;;;;;4.10;3.00;;;;;;;9.50;99.66;94560.09;5033830;28;20232;-61
2022/09/21 02:09:36;;;;;;;3.63;3.17;;;;;;;9.55;99.32;94563.09;5051733;28;20267;-62
2022/09/21 02:12:02;;;;;;;3.37;2.87;;;;;;;9.66;98.21;94574.88;5033856;28;20220;-62
2022/09/21 02:14:28;;;;;;;4.63;3.57;;;;;;;9.66;97.73;94569.78;5051435;28;20632;-62
2022/09/21 02:17:23;;;;;;;6.90;3.53;;;;;;;9.65;98.38;94574.09;5051707;28;20185;-61
2022/09/21 02:20:04;;;;;;;4.90;3.77;;;;;;;9.79;96.17;94599.13;5033938;28;20569;-62
2022/09/21 02:22:38;;;;;;;4.77;3.63;;;;;;;9.59;98.18;94568.72;5034010;28;20254;-60
2022/09/21 02:25:12;;;;;;;5.87;3.10;;;;;;;9.63;98.10;94573.41;5051811;28;20689;-62
2022/09/21 02:27:58;;;;;;;5.10;3.70;;;;;;;9.69;98.20;94579.72;5051606;28;20279;-62
2022/09/21 02:30:25;;;;;;;6.43;3.30;;;;;;;9.59;99.48;94564.44;5051509;28;20710;-60
2022/09/21 02:33:09;;;;;;;3.20;2.90;;;;;;;9.65;98.68;94578.34;5051209;28;20217;-60
2022/09/21 02:35:55;;;;;;;8.93;3.50;;;;;;;9.62;99.31;94576.06;5051337;28;20711;-61
2022/09/21 02:38:35;;;;;;;4.93;2.80;;;;;;;9.75;98.20;94585.09;5051411;28;20200;-60
2022/09/21 02:41:15;;;;;;;5.03;3.10;;;;;;;9.72;96.55;94585.34;5033389;28;20224;-63
2022/09/21 02:44:19;;;;;;;3.67;2.50;;;;;;;9.61;97.85;94571.91;5051483;28;20567;-63
2022/09/21 02:46:55;;;;;;;3.63;2.93;;;;;;;9.39;99.32;94567.81;5000893;28;20284;-61
2022/09/21 02:49:26;;;;;;;4.27;2.87;;;;;;;9.40;100.00;94568.59;5051419;28;20224;-58
2022/09/21 02:51:57;;;;;;;3.13;2.83;;;;;;;9.32;99.68;94569.22;5051090;28;20263;-61
2022/09/21 02:54:27;;;;;;;2.43;2.23;;;;;;;9.25;99.52;94580.81;5051019;28;20248;-60
2022/09/21 02:56:54;;;;;;;4.33;2.80;;;;;;;9.32;99.90;94576.81;5051177;28;20545;-61
2022/09/21 02:59:22;;;;;;;7.73;2.67;;;;;;;9.29;100.00;94561.88;5032922;28;20307;-61
2022/09/21 03:01:48;;;;;;;5.80;2.87;;;;;;;9.07;100.00;94551.84;5033169;28;20196;-60
2022/09/21 03:04:13;;;;;;;3.90;2.33;;;;;;;9.00;100.00;94563.41;5050909;28;20221;-61
2022/09/21 03:06:40;;;;;;;2.83;2.10;;;;;;;9.10;100.00;94577.75;5051133;28;20189;-60
2022/09/21 03:09:05;;;;;;;6.80;2.60;;;;;;;9.02;100.00;94564.09;5016865;28;20224;-61
2022/09/21 03:11:31;;;;;;;4.83;2.33;;;;;;;9.00;100.00;94563.41;5050706;28;20214;-62
2022/09/21 03:13:58;;;;;;;3.00;2.40;;;;;;;9.05;100.00;94574.00;5032845;28;20225;-62
2022/09/21 03:16:23;;;;;;;4.67;2.67;;;;;;;9.05;100.00;94571.47;5050766;28;20268;-60
2022/09/21 03:18:50;;;;;;;3.70;2.37;;;;;;;9.14;100.00;94579.13;5032824;28;20209;-61
2022/09/21 03:21:15;;;;;;;2.73;2.20;;;;;;;9.19;100.00;94583.84;5050944;28;20200;-63
2022/09/21 03:23:41;;;;;;;2.33;2.13;;;;;;;9.25;99.85;94578.28;5050939;28;20758;-60
2022/09/21 03:26:07;;;;;;;3.00;2.60;;;;;;;9.36;99.09;94592.59;5050848;28;20225;-63
2022/09/21 03:28:33;;;;;;;3.97;3.40;;;;;;;9.13;99.89;94569.91;5050852;28;20250;-61
2022/09/21 03:30:59;;;;;;;5.20;3.40;;;;;;;9.16;100.00;94579.00;5032694;28;20217;-59
2022/09/21 03:33:24;;;;;;;6.00;3.30;;;;;;;9.21;98.91;94589.59;5050373;28;20196;-63
2022/09/21 03:35:51;;;;;;;9.10;4.23;;;;;;;9.09;100.00;94573.59;5050438;28;20249;-59
2022/09/21 03:38:17;;;;;;;7.33;3.80;;;;;;;8.96;100.00;94569.66;5050469;28;20192;-60
2022/09/21 03:40:46;;;;;;;9.80;3.50;;;;;;;9.05;100.00;94589.22;5050490;28;20185;-60
2022/09/21 03:43:12;;;;;;;4.77;3.27;;;;;;;9.06;99.24;94588.25;5050472;28;20173;-62
2022/09/21 03:45:39;;;;;;;4.40;3.30;;;;;;;8.92;99.63;94575.88;5050384;28;20797;-62
2022/09/21 03:48:05;;;;;;;4.37;3.47;;;;;;;8.74;100.00;94559.59;5050497;28;20189;-60
2022/09/21 03:50:30;;;;;;;6.60;3.20;;;;;;;8.48;100.00;94570.03;5034613;28;20661;-61
2022/09/21 03:52:56;;;;;;;11.23;3.47;;;;;;;8.59;100.00;94578.53;5036052;28;20609;-60
2022/09/21 03:55:22;;;;;;;6.77;3.40;;;;;;;8.54;100.00;94578.91;5061096;22;20315;-63
2022/09/21 03:57:48;;;;;;;5.07;3.53;;;;;;;8.44;100.00;94580.53;5053843;28;20272;-60
2022/09/21 04:00:14;;;;;;;5.23;3.17;;;;;;;8.58;100.00;94589.59;5053811;28;20282;-61
2022/09/21 04:02:39;;;;;;;5.77;3.13;;;;;;;8.64;100.00;94594.19;5053761;28;20173;-61
2022/09/21 04:05:09;;;;;;;5.50;3.07;;;;;;;8.57;100.00;94591.31;5053490;28;20220;-61
2022/09/21 04:07:35;;;;;;;6.13;3.63;;;;;;;8.50;100.00;94581.78;5036131;28;20239;-62
2022/09/21 04:10:06;;;;;;;8.27;3.27;;;;;;;8.11;100.00;94576.31;5052585;28;20220;-60
2022/09/21 04:12:43;;;;;;;4.57;3.20;;;;;;;8.13;100.00;94588.84;5053335;28;20281;-63
2022/09/21 04:15:11;;;;;;;3.90;3.50;;;;;;;7.73;100.00;94586.00;5035790;28;20221;-62
2022/09/21 04:17:36;;;;;;;4.67;3.60;;;;;;;7.76;100.00;94585.75;5053523;28;20664;-60
2022/09/21 04:20:03;;;;;;;5.27;3.23;;;;;;;8.12;100.00;94584.72;5053659;28;20587;-61
2022/09/21 04:22:28;;;;;;;5.60;3.03;;;;;;;8.01;100.00;94585.53;5053470;28;20635;-60
2022/09/21 04:24:53;;;;;;;5.27;3.10;;;;;;;8.12;100.00;94582.19;5035644;28;20237;-62
2022/09/21 04:27:19;;;;;;;4.53;3.03;;;;;;;8.42;100.00;94593.31;5053506;28;20181;-60
2022/09/21 04:29:44;;;;;;;4.10;3.13;;;;;;;8.69;100.00;94610.63;5053829;28;20236;-61
2022/09/21 04:32:10;;;;;;;5.73;3.43;;;;;;;8.53;100.00;94601.81;5053432;28;20258;-61
2022/09/21 04:34:39;;;;;;;6.83;3.40;;;;;;;8.48;100.00;94600.44;5053207;28;20308;-66
2022/09/21 04:37:10;;;;;;;5.10;3.87;;;;;;;8.29;100.00;94586.78;5053701;28;20190;-62
2022/09/21 04:39:36;;;;;;;4.47;3.37;;;;;;;8.29;100.00;94590.13;5053431;28;20266;-63
2022/09/21 04:42:02;;;;;;;8.43;3.80;;;;;;;8.53;100.00;94600.09;5053206;28;20256;-63
2022/09/21 04:44:29;;;;;;;7.03;3.77;;;;;;;8.73;100.00;94606.13;5035141;28;20789;-62
2022/09/21 04:46:54;;;;;;;7.50;4.37;;;;;;;8.84;100.00;94611.16;5053000;28;20268;-60
2022/09/21 04:49:20;;;;;;;6.13;4.23;;;;;;;8.81;100.00;94608.88;5053185;28;20660;-60
2022/09/21 04:51:45;;;;;;;6.90;4.37;;;;;;;8.94;100.00;94604.44;5052548;28;20359;-62
2022/09/21 04:54:10;;;;;;;11.73;4.13;;;;;;;9.06;100.00;94611.09;5052480;28;20213;-62
2022/09/21 04:56:36;;;;;;;7.70;4.07;;;;;;;8.81;100.00;94601.25;5052668;28;20189;-63
2022/09/21 04:59:01;;;;;;;7.03;4.00;;;;;;;8.82;100.00;94597.81;5052759;28;20213;-63
2022/09/21 05:01:27;;;;;;;6.60;3.80;;;;;;;8.96;100.00;94603.41;5051430;28;20186;-63
2022/09/21 05:03:53;;;;;;;6.10;4.10;;;;;;;9.27;100.00;94602.56;5052934;28;20217;-62
2022/09/21 05:06:18;;;;;;;7.60;4.00;;;;;;;8.97;100.00;94615.16;5052999;28;20197;-62
2022/09/21 05:11:28;;;;;;;6.57;3.90;;;;;;;9.64;100.00;94635.91;5052761;28;20274;-61
2022/09/21 05:13:53;;;;;;;10.03;4.33;;;;;;;9.54;100.00;94613.94;5034323;28;20213;-60
2022/09/21 05:16:18;;;;;;;7.47;3.40;;;;;;;9.67;100.00;94637.41;5052585;28;20193;-61
2022/09/21 05:18:45;;;;;;;11.60;4.93;;;;;;;9.89;100.00;94599.19;5052492;28;20221;-60
2022/09/21 05:21:12;;;;;;;6.80;3.53;;;;;;;10.12;100.00;94608.25;5052427;28;20272;-62
2022/09/21 05:23:38;;;;;;;6.00;3.27;;;;;;;10.16;100.00;94654.53;5052459;28;20564;-64
2022/09/21 05:26:04;;;;;;;6.30;3.40;;;;;;;9.99;100.00;94654.16;5052133;28;20185;-64
2022/09/21 05:28:30;;;;;;;8.93;3.27;;;;;;;9.98;100.00;94662.69;5051301;28;20189;-60
2022/09/21 05:31:19;;;;;;;4.33;2.90;;;;;;;9.98;100.00;94666.97;5051060;28;20209;-63
2022/09/21 05:33:52;;;;;;;3.73;2.90;;;;;;;10.00;100.00;94678.59;5026129;28;20272;-61
2022/09/21 05:36:36;;;;;;;5.17;3.37;;;;;;;10.14;99.34;94687.66;5052059;28;20571;-64
2022/09/21 05:39:02;;;;;;;8.57;3.83;;;;;;;10.12;99.32;94692.88;5052086;28;20231;-64
2022/09/21 05:41:28;;;;;;;9.63;3.63;;;;;;;10.31;100.00;94608.31;5052072;28;20575;-60
2022/09/21 05:43:54;;;;;;;8.13;3.63;;;;;;;10.49;100.00;94684.72;5052127;28;20213;-61
2022/09/21 05:46:41;;;;;;;5.13;3.33;;;;;;;10.35;100.00;94673.19;5052028;28;20276;-63
2022/09/21 05:49:40;;;;;;;7.40;3.20;;;;;;;10.32;99.08;94693.78;5052183;28;20213;-60
2022/09/21 05:52:22;;;;;;;4.00;3.13;;;;;;;10.42;98.09;94703.97;5052115;28;20292;-64
2022/09/21 05:55:25;;;;;;;10.50;5.03;;;;;;;10.46;97.18;94703.59;5051941;28;20244;-63
2022/09/21 05:58:30;;;;;;;4.73;3.53;;;;;;;10.64;96.02;94719.84;5021118;28;20221;-62
2022/09/21 06:01:19;;;;;;;4.30;3.53;;;;;;;10.65;96.49;94702.84;5034103;28;20201;-62
2022/09/21 06:03:47;;;;;;;7.20;4.00;;;;;;;10.82;94.20;94737.84;5052005;28;20262;-61
2022/09/21 06:06:13;;;;;;;7.80;3.50;;;;;;;10.79;94.86;94718.56;5051765;28;20635;-61
2022/09/21 06:08:38;;;;;;;7.13;3.50;;;;;;;10.85;94.59;94729.94;5051562;28;20219;-60
2022/09/21 06:11:04;;;;;;;8.63;4.30;;;;;;;10.69;96.44;94694.84;5051772;28;20296;-60
2022/09/21 06:13:30;;;;;;;8.30;3.90;;;;;;;10.77;96.26;94704.34;5051101;28;20619;-60
2022/09/21 06:15:55;;;;;;;7.67;3.77;;;;;;;10.96;94.55;94727.31;5051380;28;20193;-61
2022/09/21 06:18:21;;;;;;;8.03;4.17;;;;;;;10.92;95.06;94726.78;5051455;28;20207;-61
2022/09/21 06:20:46;;;;;;;10.27;4.70;;;;;;;10.82;96.21;94704.78;5051564;28;20193;-60
2022/09/21 06:23:13;;;;;;;9.30;3.70;;;;;;;10.98;95.52;94715.25;5033809;28;20627;-61
2022/09/21 06:25:38;;;;;;;6.97;3.93;;;;;;;10.87;96.00;94703.44;5033555;28;20251;-60
2022/09/21 06:28:10;;;;;;;11.80;4.00;;;;;;;10.97;96.92;94696.66;5051373;28;20221;-60
2022/09/21 06:30:38;;;;;;;4.37;3.63;;;;;;;10.96;96.37;94712.84;5051253;28;20213;-60
2022/09/21 06:33:05;;;;;;;9.67;3.77;;;;;;;11.19;95.42;94723.59;5051300;28;20204;-61
2022/09/21 06:35:33;;;;;;;9.93;3.97;;;;;;;11.09;93.97;94738.03;5050989;28;20209;-59
2022/09/21 06:38:05;;;;;;;9.83;4.70;;;;;;;11.12;94.83;94726.78;5033254;28;20202;-59
2022/09/21 06:40:31;;;;;;;10.43;5.70;;;;;;;11.35;93.76;94744.22;5051362;28;20319;-60
2022/09/21 06:42:59;;;;;;;9.57;4.80;;;;;;;11.27;94.34;94735.66;5051128;28;20193;-60
2022/09/21 06:45:25;;;;;;;6.53;4.23;;;;;;;11.33;93.94;94741.00;5051469;28;20217;-60
2022/09/21 06:47:51;;;;;;;7.00;3.90;;;;;;;11.56;91.85;94783.13;5016821;28;20690;-60
2022/09/21 06:50:16;;;;;;;5.13;3.30;;;;;;;11.65;92.10;94774.69;5051103;28;20297;-60
2022/09/21 06:52:42;;;;;;;9.47;3.67;;;;;;;11.76;91.50;94784.78;5051051;28;20185;-61
2022/09/21 06:55:08;;;;;;;5.17;2.77;;;;;;;11.71;90.70;94792.03;5051106;28;20695;-61
2022/09/21 06:57:37;;;;;;;4.70;3.43;;;;;;;11.95;90.40;94786.53;5050774;28;20189;-61
2022/09/21 07:00:04;;;;;;;5.07;3.33;;;;;;;11.82;90.18;94803.81;5050894;28;20247;-61
2022/09/21 07:02:30;;;;;;;2.87;1.83;;;;;;;11.70;91.07;94777.66;5050821;28;20275;-63
2022/09/21 07:04:57;;;;;;;3.57;1.70;;;;;;;11.66;91.73;94752.59;5051237;28;20255;-61
2022/09/21 07:07:23;;;;;;;2.60;1.83;;;;;;;11.79;91.71;94769.25;5050822;28;20652;-62
2022/09/21 07:09:48;;;;;;;2.13;1.53;;;;;;;12.01;90.66;94774.97;5051220;28;20584;-61
2022/09/21 07:12:15;;;;;;;1.70;1.40;;;;;;;11.59;91.10;94770.13;5033091;28;20248;-61
2022/09/21 07:14:43;;;;;;;2.53;1.80;;;;;;;11.65;92.43;94745.88;5051343;28;20693;-62
2022/09/21 07:17:08;;;;;;;2.07;1.53;;;;;;;11.65;92.22;94751.78;5050627;28;20235;-60
2022/09/21 07:19:34;;;;;;;4.90;1.67;;;;;;;11.76;92.23;94754.22;5051145;28;20643;-61
2022/09/21 07:21:59;;;;;;;6.30;1.70;;;;;;;11.98;92.53;94749.78;5050866;28;20225;-60
2022/09/21 07:24:24;;;;;;;2.93;1.70;;;;;;;12.22;91.15;94775.63;5049761;28;20300;-61
2022/09/21 07:26:50;;;;;;;2.00;1.70;;;;;;;12.51;90.34;94784.81;5050661;28;20201;-60
2022/09/21 07:29:15;;;;;;;3.67;1.67;;;;;;;12.31;89.80;94785.00;5050927;28;20231;-60
2022/09/21 07:31:44;;;;;;;2.30;1.77;;;;;;;12.21;90.79;94768.91;5050555;28;20232;-61
2022/09/21 07:34:10;;;;;;;2.90;1.60;;;;;;;12.29;89.95;94785.16;5032744;28;20209;-60
2022/09/21 07:36:35;;;;;;;2.00;1.90;;;;;;;12.06;90.62;94781.28;5050177;28;20557;-62
2022/09/21 07:39:02;;;;;;;3.20;1.93;;;;;;;11.85;92.12;94742.41;5050640;28;20205;-61
2022/09/21 07:41:28;;;;;;;3.30;1.70;;;;;;;11.73;93.35;94729.03;5050406;28;20709;-60
2022/09/21 07:43:53;;;;;;;2.80;2.33;;;;;;;11.82;92.61;94731.69;5050396;28;20217;-61
2022/09/21 07:46:19;;;;;;;6.13;2.63;;;;;;;12.06;91.59;94747.38;5050432;28;20193;-61
2022/09/21 07:48:45;;;;;;;2.23;2.03;;;;;;;12.08;90.80;94770.97;5050360;28;20259;-61
2022/09/21 07:51:13;;;;;;;2.83;2.00;;;;;;;12.04;90.93;94762.75;5050540;28;20213;-62
2022/09/21 07:53:41;;;;;;;4.83;1.77;;;;;;;12.14;89.49;94793.34;5050393;28;20229;-60
2022/09/21 07:56:08;;;;;;;3.13;1.93;;;;;;;11.92;90.62;94763.06;5050310;28;20216;-62
2022/09/21 08:01:19;;;;;;;5.10;2.00;;;;;;;11.82;91.13;94741.91;5050681;28;20200;-60
2022/09/21 08:03:48;;;;;;;2.33;1.83;;;;;;;11.86;91.53;94733.03;5050308;28;20210;-61
2022/09/21 08:06:13;;;;;;;8.87;1.90;;;;;;;12.08;90.16;94784.50;5050361;28;20189;-60
2022/09/21 08:08:40;;;;;;;1.93;1.73;;;;;;;11.94;90.17;94766.28;5050079;28;20240;-60
2022/09/21 08:11:07;;;;;;;2.60;1.60;;;;;;;12.08;90.22;94753.91;5032558;28;20257;-60
2022/09/21 08:13:32;;;;;;;6.97;2.17;;;;;;;12.13;89.05;94791.72;5049965;28;20205;-60
2022/09/21 08:15:59;;;;;;;1.87;1.70;;;;;;;12.26;88.59;94798.16;5050066;28;20199;-61
2022/09/21 08:18:26;;;;;;;2.83;2.20;;;;;;;12.60;87.46;94818.91;5049876;28;20186;-62
2022/09/21 08:20:59;;;;;;;2.33;1.80;;;;;;;12.39;86.24;94846.31;5049914;28;20283;-60
2022/09/21 08:23:27;;;;;;;2.70;1.47;;;;;;;12.26;87.59;94805.00;5050074;28;20197;-61
2022/09/21 08:25:59;;;;;;;2.13;1.90;;;;;;;12.35;87.87;94799.06;5049998;28;20682;-60
2022/09/21 08:28:24;;;;;;;4.47;2.10;;;;;;;12.35;87.13;94812.63;5049706;28;20267;-59
2022/09/21 08:30:50;;;;;;;2.70;1.87;;;;;;;12.63;85.54;94839.00;5049901;28;20692;-61
2022/09/21 08:33:16;;;;;;;3.13;2.03;;;;;;;12.54;87.09;94792.19;5049986;28;20272;-60
2022/09/21 08:35:41;;;;;;;3.03;1.73;;;;;;;12.88;84.92;94848.63;5050893;28;20215;-61
2022/09/21 08:38:06;;;;;;;7.83;2.33;;;;;;;12.84;84.92;94844.75;5053161;28;20582;-60
2022/09/21 08:40:33;;;;;;;6.13;2.40;;;;;;;13.24;84.17;94849.59;5053098;28;20213;-60
2022/09/21 08:43:08;;;;;;;2.80;2.10;;;;;;;13.62;82.93;94877.50;5035325;28;20198;-62
2022/09/21 08:45:41;;;;;;;4.33;1.80;;;;;;;13.30;80.87;94911.13;5053155;28;20303;-62
2022/09/21 08:48:12;;;;;;;5.57;1.70;;;;;;;13.14;81.92;94877.72;5053103;28;20197;-61
2022/09/21 08:50:45;;;;;;;3.27;2.30;;;;;;;13.46;81.77;94873.03;5035226;28;20227;-61
2022/09/21 08:53:37;;;;;;;4.93;2.10;;;;;;;14.01;81.99;94860.19;5053027;28;20209;-61
2022/09/21 08:56:03;;;;;;;2.77;1.73;;;;;;;14.34;80.14;94899.69;5052449;28;20205;-60
2022/09/21 08:58:31;;;;;;;4.77;1.70;;;;;;;14.04;77.04;94949.34;5052872;28;20186;-60
2022/09/21 09:01:32;;;;;;;3.20;1.50;;;;;;;14.37;74.09;95006.78;5035133;28;20255;-62
2022/09/21 09:04:28;;;;;;;1.30;1.20;;;;;;;14.31;73.85;94982.59;4972110;28;20214;-62
2022/09/21 09:07:27;;;;;;;3.10;1.23;;;;;;;14.11;72.29;94997.25;5053222;28;20186;-61
2022/09/21 09:10:14;;;;;;;5.63;2.30;;;;;;;13.98;73.51;94955.84;5034963;28;20217;-61
2022/09/21 09:13:09;;;;;;;2.77;2.10;;;;;;;14.28;73.24;94942.00;5052887;28;20198;-63
2022/09/21 09:16:02;;;;;;;2.33;1.50;;;;;;;14.58;73.49;94946.75;5015526;28;20234;-61
2022/09/21 09:18:54;;;;;;;5.20;1.57;;;;;;;14.48;72.35;94960.56;5052609;28;20587;-62
2022/09/21 09:21:25;;;;;;;8.30;2.60;;;;;;;14.25;71.66;94947.34;5052333;28;20302;-63
2022/09/21 09:24:09;;;;;;;4.40;1.80;;;;;;;13.98;72.32;94907.28;5052980;28;20667;-61
2022/09/21 09:26:43;;;;;;;1.63;1.20;;;;;;;13.57;74.11;94866.13;5052676;28;20203;-62
2022/09/21 09:29:19;;;;;;;1.70;1.47;;;;;;;13.90;74.74;94847.59;5052535;28;20328;-60
2022/09/21 09:31:46;;;;;;;2.03;1.50;;;;;;;14.28;73.02;94844.81;5034545;28;20221;-63
2022/09/21 09:34:23;;;;;;;3.40;2.07;;;;;;;14.07;71.10;94880.06;5052604;28;20217;-60
2022/09/21 09:36:57;;;;;;;4.00;1.57;;;;;;;13.78;71.75;94854.69;5052327;28;20201;-62
2022/09/21 09:39:23;;;;;;;4.37;1.80;;;;;;;13.80;73.16;94822.13;5038156;22;20235;-60
2022/09/21 09:42:12;;;;;;;4.90;1.50;;;;;;;14.00;71.45;94872.16;5032551;28;20198;-61
2022/09/21 09:44:40;;;;;;;2.10;1.13;;;;;;;14.40;71.54;94863.28;5032437;28;20214;-61
2022/09/21 09:47:44;;;;;;;1.83;1.33;;;;;;;14.77;71.01;94882.59;5030411;28;20194;-61
2022/09/21 09:50:18;;;;;;;2.57;1.57;;;;;;;14.89;68.47;94937.72;5032773;28;20663;-60
2022/09/21 09:52:46;;;;;;;2.27;1.50;;;;;;;14.95;66.70;94962.72;5032467;28;20648;-63
2022/09/21 09:55:22;;;;;;;5.20;1.58;;;;;;;15.11;66.26;94975.63;5032534;28;20224;-62
2022/09/21 09:57:48;;;;;;;1.83;1.60;;;;;;;14.95;64.56;95008.81;5030731;28;20190;-61
2022/09/21 10:00:17;;;;;;;3.38;1.70;;;;;;;14.65;64.81;94986.13;5031981;28;20218;-64
2022/09/21 10:02:54;;;;;;;1.47;1.13;;;;;;;14.88;65.17;94956.59;5031851;28;20217;-62
2022/09/21 10:05:41;;;;;;;1.87;1.40;;;;;;;15.09;64.39;94977.53;5030691;28;20256;-61
2022/09/21 10:08:27;;;;;;;2.47;1.23;;;;;;;15.10;62.65;95019.31;5031871;28;20198;-62
2022/09/21 10:10:52;;;;;;;0.77;0.77;;;;;;;14.98;60.58;95044.38;5032013;28;20205;-60
2022/09/21 10:13:40;;;;;;;2.50;0.80;;;;;;;15.07;61.32;95020.41;5031945;28;20243;-62
2022/09/21 10:16:19;;;;;;;1.77;1.00;;;;;;;14.82;62.95;94980.22;5032019;28;20201;-62
2022/09/21 10:18:47;;;;;;;0.80;0.80;;;;;;;14.70;62.41;94978.84;5031536;28;20243;-61
2022/09/21 10:21:22;;;;;;;1.20;0.70;;;;;;;15.19;60.61;95025.31;5031730;28;20204;-61
2022/09/21 10:23:51;;;;;;;1.40;0.90;;;;;;;15.61;59.47;95051.91;5031978;28;20229;-61
2022/09/21 10:26:19;;;;;;;1.70;0.80;;;;;;;16.14;58.25;95067.13;5031722;28;20338;-61
2022/09/21 10:28:56;;;;;;;0.85;0.85;;;;;;;16.33;57.98;95070.25;5031757;28;20222;-60
2022/09/21 10:31:25;;;;;;;1.63;1.25;;;;;;;16.39;57.83;95043.97;5031631;28;20210;-63
2022/09/21 10:34:06;;;;;;;1.15;0.80;;;;;;;16.55;56.08;95082.56;5030689;28;20214;-60
2022/09/21 10:36:34;;;;;;;0.90;0.88;;;;;;;16.76;54.60;95129.16;5031613;28;20190;-61
2022/09/21 10:39:18;;;;;;;3.20;1.20;;;;;;;16.54;54.33;95106.59;5031405;28;20209;-64
2022/09/21 10:41:58;;;;;;;1.48;1.23;;;;;;;16.60;52.89;95149.63;5031549;28;20232;-63
2022/09/21 10:44:28;;;;;;;0.55;0.55;;;;;;;16.55;52.64;95131.31;5031660;28;20213;-60
2022/09/21 10:46:54;;;;;;;1.05;0.90;;;;;;;17.06;52.07;95145.78;5031772;28;20265;-61
2022/09/21 10:49:27;;;;;;;0.90;0.90;;;;;;;17.77;50.46;95197.50;5031603;28;20218;-60
2022/09/21 10:51:56;;;;;;;1.85;0.70;;;;;;;17.26;49.99;95183.09;5031395;28;20703;-62
2022/09/21 10:54:27;;;;;;;0.73;0.70;;;;;;;17.17;50.62;95144.69;5031571;28;20213;-61
2022/09/21 10:56:59;;;;;;;0.70;0.70;;;;;;;17.06;49.46;95160.38;5031407;28;20253;-61
2022/09/21 10:59:30;;;;;;;0.60;0.60;;;;;;;17.28;48.31;95186.31;5031176;28;20214;-60
2022/09/21 11:01:58;;;;;;;2.40;0.50;;;;;;;17.29;49.32;95151.13;5031372;28;20187;-62
2022/09/21 11:04:47;;;;;;;0.60;0.60;;;;;;;17.65;47.75;95203.09;5030216;28;20280;-63
2022/09/21 11:07:20;;;;;;;1.75;0.57;;;;;;;17.80;48.14;95166.28;5031479;28;20202;-63
2022/09/21 11:10:13;;;;;;;0.57;0.55;;;;;;;17.59;48.80;95137.69;5030014;28;20221;-61
2022/09/21 11:12:59;;;;;;;1.30;1.20;;;;;;;18.06;47.92;95172.06;5031315;28;20182;-61
2022/09/21 11:15:48;;;;;;;1.02;0.70;;;;;;;18.11;45.66;95241.88;5031079;28;20254;-63
2022/09/21 11:18:22;;;;;;;1.00;0.82;;;;;;;18.09;47.24;95169.19;5031125;28;20313;-63
2022/09/21 11:21:00;;;;;;;0.88;0.80;;;;;;;17.39;47.34;95147.44;5029794;28;20213;-62
2022/09/21 11:23:45;;;;;;;0.52;0.50;;;;;;;17.66;46.04;95187.50;5029971;28;20194;-63
2022/09/21 11:26:37;;;;;;;1.17;1.00;;;;;;;18.25;45.10;95212.91;5031196;28;20270;-63
2022/09/21 11:29:11;;;;;;;1.50;1.20;;;;;;;18.04;45.44;95202.31;5025324;28;20234;-63
2022/09/21 11:32:01;;;;;;;0.73;0.60;;;;;;;17.56;45.18;95177.38;5031002;28;20584;-61
2022/09/21 11:34:57;;;;;;;0.80;0.70;;;;;;;17.32;47.17;95115.63;5031191;28;20221;-61
2022/09/21 11:37:32;;;;;;;0.75;0.60;;;;;;;17.36;46.92;95127.19;5031033;28;20215;-63
2022/09/21 11:40:20;;;;;;;1.17;0.68;;;;;;;16.99;47.44;95098.53;5030501;28;20758;-61
2022/09/21 11:42:54;;;;;;;0.57;0.57;;;;;;;17.09;49.22;95034.19;5024244;28;20550;-61
2022/09/21 11:45:32;;;;;;;0.82;0.60;;;;;;;16.38;49.08;95034.66;5031052;28;20573;-62
2022/09/21 11:48:05;;;;;;;1.15;0.70;;;;;;;16.75;47.98;95078.75;5030750;28;20189;-61
2022/09/21 11:50:51;;;;;;;0.60;0.60;;;;;;;16.54;47.07;95098.91;5030696;28;20214;-61
2022/09/21 11:53:50;;;;;;;0.60;0.60;;;;;;;16.35;47.97;95073.47;5030790;28;20239;-62
2022/09/21 11:56:34;;;;;;;0.60;0.60;;;;;;;17.29;53.56;94899.28;4994445;28;20231;-62
2022/09/21 11:59:05;;;;;;;0.90;0.80;;;;;;;17.58;54.50;94897.78;5030359;28;20226;-61
2022/09/21 12:01:58;;;;;;;1.85;0.63;;;;;;;17.25;55.74;94862.03;5030801;28;20197;-61